createdAt,value
2018-04-07T00:00:51.871Z,9.70
2018-04-07T00:03:17.811Z,9.70
2018-04-07T00:05:43.703Z,9.60
2018-04-07T00:08:09.611Z,9.60
2018-04-07T00:10:35.565Z,9.50
2018-04-07T00:13:01.503Z,9.40
2018-04-07T00:15:27.425Z,9.40
2018-04-07T00:17:53.312Z,9.40
2018-04-07T00:20:19.211Z,9.40
2018-04-07T00:22:45.892Z,9.20
2018-04-07T00:25:11.828Z,9.10
2018-04-07T00:27:37.757Z,9.20
2018-04-07T00:30:03.632Z,9.10
2018-04-07T00:32:29.532Z,9.10
2018-04-07T00:34:55.423Z,9.10
2018-04-07T00:37:21.336Z,9.00
2018-04-07T00:39:47.223Z,9.00
2018-04-07T00:42:13.168Z,9.00
2018-04-07T00:44:39.059Z,9.00
2018-04-07T00:47:04.983Z,9.10
2018-04-07T00:49:30.916Z,9.20
2018-04-07T00:51:56.824Z,9.20
2018-04-07T00:54:22.724Z,9.30
2018-04-07T00:56:48.643Z,9.20
2018-04-07T00:59:14.562Z,9.20
2018-04-07T01:01:40.446Z,9.20
2018-04-07T01:04:06.398Z,9.10
2018-04-07T01:06:32.289Z,9.20
2018-04-07T01:08:58.191Z,9.40
2018-04-07T01:11:24.111Z,9.50
2018-04-07T01:13:49.984Z,9.50
2018-04-07T01:16:15.953Z,9.50
2018-04-07T01:18:41.853Z,9.60
2018-04-07T01:21:07.767Z,9.60
2018-04-07T01:23:33.660Z,9.50
2018-04-07T01:25:59.565Z,9.60
2018-04-07T01:28:25.471Z,9.70
2018-04-07T01:30:51.399Z,9.60
2018-04-07T01:33:17.324Z,9.60
2018-04-07T01:35:43.218Z,9.50
2018-04-07T01:38:09.141Z,9.40
2018-04-07T01:40:35.025Z,9.40
2018-04-07T01:43:00.936Z,9.20
2018-04-07T01:45:26.817Z,9.20
2018-04-07T01:47:52.730Z,9.20
2018-04-07T01:50:18.621Z,9.20
2018-04-07T01:52:44.539Z,9.30
2018-04-07T01:55:10.460Z,9.30
2018-04-07T01:57:36.343Z,9.30
2018-04-07T02:00:03.019Z,9.20
2018-04-07T02:02:28.918Z,9.20
2018-04-07T02:04:54.823Z,9.10
2018-04-07T02:07:21.484Z,9.00
2018-04-07T02:09:47.420Z,9.00
2018-04-07T02:12:13.316Z,9.00
2018-04-07T02:14:39.239Z,9.00
2018-04-07T02:17:05.131Z,8.90
2018-04-07T02:19:31.058Z,8.90
2018-04-07T02:21:56.940Z,8.90
2018-04-07T02:24:22.846Z,8.80
2018-04-07T02:26:48.751Z,8.80
2018-04-07T02:29:14.635Z,8.70
2018-04-07T02:31:40.555Z,8.70
2018-04-07T02:34:06.451Z,8.60
2018-04-07T02:36:32.379Z,8.70
2018-04-07T02:38:58.264Z,8.60
2018-04-07T02:41:24.185Z,8.50
2018-04-07T02:43:50.074Z,8.40
2018-04-07T02:46:16.735Z,8.40
2018-04-07T02:48:42.635Z,8.30
2018-04-07T02:51:09.274Z,8.40
2018-04-07T02:53:35.205Z,8.40
2018-04-07T02:56:01.100Z,8.40
2018-04-07T02:58:27.020Z,8.30
2018-04-07T03:00:52.917Z,8.30
2018-04-07T03:03:18.812Z,8.30
2018-04-07T03:05:44.751Z,8.30
2018-04-07T03:08:10.679Z,8.30
2018-04-07T03:10:36.579Z,8.20
2018-04-07T03:13:02.468Z,8.20
2018-04-07T03:15:28.368Z,8.10
2018-04-07T03:17:54.995Z,7.90
2018-04-07T03:20:20.874Z,7.90
2018-04-07T03:22:46.797Z,8.00
2018-04-07T03:25:12.684Z,7.90
2018-04-07T03:27:38.608Z,7.90
2018-04-07T03:30:04.489Z,7.90
2018-04-07T03:32:30.402Z,7.80
2018-04-07T03:34:56.320Z,7.80
2018-04-07T03:37:22.227Z,7.90
2018-04-07T03:39:48.123Z,7.90
2018-04-07T03:42:14.073Z,8.00
2018-04-07T03:44:39.959Z,8.00
2018-04-07T03:47:05.907Z,7.90
2018-04-07T03:49:31.804Z,7.90
2018-04-07T03:51:57.728Z,7.90
2018-04-07T03:54:23.631Z,7.90
2018-04-07T03:56:50.256Z,7.80
2018-04-07T03:59:16.907Z,7.80
2018-04-07T04:01:43.524Z,7.70
2018-04-07T04:04:09.430Z,7.70
2018-04-07T04:06:35.383Z,7.70
2018-04-07T04:09:02.059Z,7.50
2018-04-07T04:11:27.956Z,7.40
2018-04-07T04:13:53.865Z,7.40
2018-04-07T04:16:19.767Z,7.50
2018-04-07T04:18:45.653Z,7.60
2018-04-07T04:21:11.555Z,7.60
2018-04-07T04:23:37.444Z,7.70
2018-04-07T04:26:04.096Z,7.50
2018-04-07T04:28:30.025Z,7.50
2018-04-07T04:30:55.907Z,7.50
2018-04-07T04:33:22.547Z,7.40
2018-04-07T04:35:48.455Z,7.40
2018-04-07T04:38:14.344Z,7.40
2018-04-07T04:40:40.279Z,7.40
2018-04-07T04:43:06.212Z,7.40
2018-04-07T04:45:32.084Z,7.40
2018-04-07T04:47:57.975Z,7.40
2018-04-07T04:50:24.607Z,7.40
2018-04-07T04:52:50.516Z,7.40
2018-04-07T04:55:16.394Z,7.40
2018-04-07T04:57:42.307Z,7.40
2018-04-07T05:00:08.199Z,7.50
2018-04-07T05:02:34.119Z,7.50
2018-04-07T05:05:00.783Z,7.50
2018-04-07T05:07:26.711Z,7.40
2018-04-07T05:09:52.624Z,7.50
2018-04-07T05:12:18.510Z,7.50
2018-04-07T05:14:44.442Z,7.40
2018-04-07T05:17:11.112Z,7.50
2018-04-07T05:19:37.023Z,7.40
2018-04-07T05:22:02.932Z,7.40
2018-04-07T05:24:28.823Z,7.30
2018-04-07T05:26:54.732Z,7.30
2018-04-07T05:29:20.655Z,7.20
2018-04-07T05:31:46.575Z,7.30
2018-04-07T05:34:12.503Z,7.30
2018-04-07T05:36:38.392Z,7.30
2018-04-07T05:39:04.281Z,7.40
2018-04-07T05:41:30.211Z,7.40
2018-04-07T05:43:56.100Z,7.40
2018-04-07T05:46:22.866Z,7.40
2018-04-07T05:48:48.809Z,7.30
2018-04-07T05:51:14.712Z,7.30
2018-04-07T05:53:40.586Z,7.30
2018-04-07T05:56:06.498Z,7.30
2018-04-07T05:58:32.417Z,7.30
2018-04-07T06:00:58.314Z,7.20
2018-04-07T06:03:24.212Z,7.10
2018-04-07T06:05:50.123Z,7.10
2018-04-07T06:08:16.034Z,7.10
2018-04-07T06:10:42.731Z,7.10
2018-04-07T06:13:08.686Z,7.10
2018-04-07T06:15:35.347Z,7.10
2018-04-07T06:18:01.232Z,7.20
2018-04-07T06:20:27.140Z,7.30
2018-04-07T06:22:53.128Z,7.30
2018-04-07T06:25:19.056Z,7.30
2018-04-07T06:27:44.956Z,7.40
2018-04-07T06:30:10.842Z,7.40
2018-04-07T06:32:36.779Z,7.50
2018-04-07T06:35:02.684Z,7.60
2018-04-07T06:37:28.599Z,7.60
2018-04-07T06:39:54.486Z,7.60
2018-04-07T06:42:20.429Z,7.70
2018-04-07T06:44:46.352Z,7.80
2018-04-07T06:47:12.235Z,7.90
2018-04-07T06:49:38.147Z,8.00
2018-04-07T06:52:04.044Z,8.10
2018-04-07T06:54:30.718Z,8.30
2018-04-07T06:56:56.635Z,8.20
2018-04-07T06:59:22.558Z,8.40
2018-04-07T07:01:48.446Z,8.40
2018-04-07T07:04:15.101Z,8.50
2018-04-07T07:06:41.044Z,8.50
2018-04-07T07:09:06.992Z,8.60
2018-04-07T07:11:32.916Z,8.60
2018-04-07T07:13:58.829Z,8.70
2018-04-07T07:16:24.773Z,8.80
2018-04-07T07:18:50.695Z,8.90
2018-04-07T07:21:16.632Z,9.00
2018-04-07T07:23:43.288Z,9.30
2018-04-07T07:26:09.213Z,9.30
2018-04-07T07:28:35.158Z,9.40
2018-04-07T07:31:01.040Z,9.60
2018-04-07T07:33:27.703Z,9.70
2018-04-07T07:35:53.600Z,9.70
2018-04-07T07:38:19.495Z,9.80
2018-04-07T07:40:45.403Z,9.80
2018-04-07T07:43:11.296Z,9.90
2018-04-07T07:45:37.219Z,9.90
2018-04-07T07:48:03.120Z,10.00
2018-04-07T07:50:29.043Z,10.10
2018-04-07T07:52:54.948Z,10.20
2018-04-07T07:55:20.864Z,10.30
2018-04-07T07:57:47.523Z,10.50
2018-04-07T08:00:13.736Z,10.60
2018-04-07T08:02:39.654Z,10.70
2018-04-07T08:05:06.321Z,10.80
2018-04-07T08:07:32.239Z,10.80
2018-04-07T08:09:58.859Z,11.00
2018-04-07T08:12:24.784Z,11.00
2018-04-07T08:14:50.700Z,11.10
2018-04-07T08:17:16.607Z,11.20
2018-04-07T08:19:43.222Z,11.40
2018-04-07T08:22:09.159Z,11.30
2018-04-07T08:24:35.778Z,11.70
2018-04-07T08:27:01.687Z,11.70
2018-04-07T08:29:27.572Z,11.80
2018-04-07T08:31:53.484Z,12.00
2018-04-07T08:34:19.376Z,12.10
2018-04-07T08:36:46.036Z,12.40
2018-04-07T08:39:11.980Z,12.30
2018-04-07T08:41:37.891Z,12.60
2018-04-07T08:44:03.827Z,12.70
2018-04-07T08:46:29.715Z,12.70
2018-04-07T08:48:55.638Z,12.90
2018-04-07T08:51:21.519Z,13.10
2018-04-07T08:53:47.428Z,13.20
2018-04-07T08:56:13.317Z,13.40
2018-04-07T08:58:39.243Z,13.60
2018-04-07T09:01:05.146Z,13.90
2018-04-07T09:03:31.033Z,14.00
2018-04-07T09:05:56.970Z,14.20
2018-04-07T09:08:22.913Z,14.30
2018-04-07T09:10:48.812Z,14.60
2018-04-07T09:13:15.464Z,15.10
2018-04-07T09:15:41.391Z,15.10
2018-04-07T09:18:07.277Z,15.50
2018-04-07T09:20:33.215Z,15.80
2018-04-07T09:22:59.831Z,16.50
2018-04-07T09:25:25.729Z,16.50
2018-04-07T09:27:51.647Z,16.90
2018-04-07T09:30:17.523Z,17.30
2018-04-07T09:32:43.450Z,17.60
2018-04-07T09:35:09.353Z,17.80
2018-04-07T09:37:36.010Z,18.20
2018-04-07T09:40:01.901Z,18.20
2018-04-07T09:42:28.583Z,18.50
2018-04-07T09:44:54.488Z,18.40
2018-04-07T09:47:20.363Z,18.50
2018-04-07T09:49:46.296Z,18.50
2018-04-07T09:52:12.199Z,18.50
2018-04-07T09:54:38.150Z,18.60
2018-04-07T09:57:04.808Z,18.60
2018-04-07T09:59:31.467Z,18.60
2018-04-07T10:01:57.341Z,18.60
2018-04-07T10:04:23.268Z,18.70
2018-04-07T10:06:49.910Z,18.60
2018-04-07T10:09:15.893Z,18.60
2018-04-07T10:11:41.805Z,18.60
2018-04-07T10:14:07.726Z,18.70
2018-04-07T10:16:33.675Z,18.60
2018-04-07T10:18:59.574Z,18.60
2018-04-07T10:21:25.518Z,18.60
2018-04-07T10:23:51.472Z,18.60
2018-04-07T10:26:17.396Z,18.40
2018-04-07T10:28:44.079Z,18.30
2018-04-07T10:31:09.991Z,18.30
2018-04-07T10:33:35.911Z,18.30
2018-04-07T10:36:01.823Z,18.40
2018-04-07T10:38:27.773Z,18.50
2018-04-07T10:40:53.668Z,18.50
2018-04-07T10:43:19.614Z,18.60
2018-04-07T10:45:45.512Z,18.70
2018-04-07T10:48:11.438Z,18.80
2018-04-07T10:50:37.345Z,18.90
2018-04-07T10:53:03.260Z,19.00
2018-04-07T10:55:29.143Z,19.30
2018-04-07T10:57:55.796Z,19.70
2018-04-07T11:00:21.691Z,19.60
2018-04-07T11:02:47.647Z,19.80
2018-04-07T11:05:13.568Z,19.80
2018-04-07T11:07:39.504Z,19.80
2018-04-07T11:10:05.416Z,19.90
2018-04-07T11:12:31.318Z,20.20
2018-04-07T11:14:58.040Z,20.30
2018-04-07T11:17:24.688Z,20.50
2018-04-07T11:19:51.323Z,20.60
2018-04-07T11:22:17.252Z,20.60
2018-04-07T11:24:43.878Z,20.90
2018-04-07T11:27:10.539Z,21.10
2018-04-07T11:29:36.469Z,21.00
2018-04-07T11:32:04.319Z,21.00
2018-04-07T11:34:30.984Z,21.00
2018-04-07T11:36:56.921Z,21.10
2018-04-07T11:39:22.823Z,21.20
2018-04-07T11:41:48.940Z,21.30
2018-04-07T11:44:14.859Z,21.50
2018-04-07T11:46:40.837Z,21.80
2018-04-07T11:49:08.647Z,22.10
2018-04-07T11:51:39.112Z,22.20
2018-04-07T11:54:10.012Z,22.40
2018-04-07T11:56:39.817Z,22.40
2018-04-07T11:59:07.932Z,22.50
2018-04-07T12:01:34.464Z,22.50
2018-04-07T12:04:01.586Z,22.70
2018-04-07T12:06:30.030Z,22.90
2018-04-07T12:08:58.458Z,22.90
2018-04-07T12:11:25.425Z,23.00
2018-04-07T12:13:53.276Z,22.90
2018-04-07T12:16:21.436Z,23.00
2018-04-07T12:18:53.365Z,23.10
2018-04-07T12:31:53.419Z,23.90
2018-04-07T12:34:19.366Z,24.10
2018-04-07T12:36:46.049Z,24.50
2018-04-07T12:39:12.015Z,24.50
2018-04-07T12:41:37.972Z,24.70
2018-04-07T12:44:03.916Z,24.60
2018-04-07T12:46:29.854Z,24.90
2018-04-07T12:48:55.823Z,25.10
2018-04-07T12:51:21.779Z,25.00
2018-04-07T12:53:47.739Z,25.20
2018-04-07T12:56:13.656Z,25.30
2018-04-07T12:58:39.643Z,25.50
2018-04-07T13:01:05.613Z,25.70
2018-04-07T13:03:32.358Z,26.00
2018-04-07T13:05:58.997Z,26.00
2018-04-07T13:08:24.973Z,26.00
2018-04-07T13:10:51.201Z,26.10
2018-04-07T13:34:53.774Z,26.40
2018-04-07T13:37:19.956Z,26.30
2018-04-07T13:39:46.601Z,26.30
2018-04-07T13:42:13.572Z,26.30
2018-04-07T13:44:42.655Z,26.30
2018-04-07T13:47:09.339Z,26.40
2018-04-07T13:49:35.571Z,26.40
2018-04-07T13:52:01.864Z,26.40
2018-04-07T13:54:28.031Z,26.40
2018-04-07T13:56:55.423Z,26.70
2018-04-07T13:59:21.449Z,26.80
2018-04-07T14:01:47.491Z,26.60
2018-04-07T14:04:13.832Z,26.60
2018-04-07T14:06:39.956Z,26.60
2018-04-07T14:09:06.054Z,26.80
2018-04-07T14:11:32.070Z,26.80
2018-04-07T14:13:58.733Z,26.90
2018-04-07T14:16:25.264Z,27.10
2018-04-07T14:18:51.772Z,27.30
2018-04-07T14:21:17.786Z,27.30
2018-04-07T14:23:43.787Z,26.90
2018-04-07T14:26:10.016Z,26.90
2018-04-07T14:28:36.086Z,26.80
2018-04-07T14:31:02.171Z,26.70
2018-04-07T14:33:28.239Z,26.70
2018-04-07T14:35:54.547Z,26.80
2018-04-07T14:38:20.572Z,27.00
2018-04-07T14:40:46.912Z,27.10
2018-04-07T14:43:13.358Z,27.20
2018-04-07T14:45:41.503Z,27.20
2018-04-07T14:48:08.779Z,27.10
2018-04-07T14:50:36.256Z,27.30
2018-04-07T15:00:05.722Z,27.20
2018-04-07T15:02:31.836Z,27.30
2018-04-07T15:04:58.035Z,27.40
2018-04-07T15:07:27.900Z,27.30
2018-04-07T15:09:54.139Z,27.20
2018-04-07T15:12:20.524Z,27.30
2018-04-07T15:14:46.767Z,27.30
2018-04-07T15:17:13.035Z,27.30
2018-04-07T15:19:39.837Z,27.10
2018-04-07T15:22:05.936Z,27.00
2018-04-07T15:24:32.033Z,27.20
2018-04-07T15:26:58.051Z,27.40
2018-04-07T15:29:24.064Z,27.50
2018-04-07T15:31:50.048Z,27.40
2018-04-07T15:34:16.080Z,27.30
2018-04-07T15:36:42.079Z,27.40
2018-04-07T15:39:08.206Z,27.30
2018-04-07T15:41:34.178Z,27.00
2018-04-07T15:44:00.477Z,26.90
2018-04-07T15:46:26.641Z,26.90
2018-04-07T15:48:52.683Z,26.80
2018-04-07T15:51:18.811Z,26.60
2018-04-07T15:53:44.777Z,26.50
2018-04-07T15:56:11.485Z,26.70
2018-04-07T15:58:38.237Z,26.70
2018-04-07T16:01:04.643Z,26.80
2018-04-07T16:03:31.159Z,26.70
2018-04-07T16:06:01.633Z,26.70
2018-04-07T16:32:51.877Z,26.60
2018-04-07T16:35:20.396Z,26.60
2018-04-07T16:41:17.378Z,26.60
2018-04-07T16:43:44.002Z,26.10
2018-04-07T16:46:09.909Z,26.10
2018-04-07T16:48:35.812Z,25.90
2018-04-07T16:51:01.719Z,25.60
2018-04-07T16:53:27.648Z,25.50
2018-04-07T16:55:53.576Z,25.30
2018-04-07T16:58:19.527Z,25.30
2018-04-07T17:00:46.209Z,25.10
2018-04-07T17:03:12.132Z,25.10
2018-04-07T17:05:38.061Z,25.10
2018-04-07T17:08:03.993Z,24.80
2018-04-07T17:10:29.888Z,24.60
2018-04-07T17:12:55.806Z,24.50
2018-04-07T17:15:21.728Z,24.30
2018-04-07T17:17:47.649Z,24.10
2018-04-07T17:20:13.530Z,23.90
2018-04-07T17:22:39.475Z,23.70
2018-04-07T17:25:05.380Z,23.50
2018-04-07T17:27:32.022Z,23.10
2018-04-07T17:29:57.941Z,23.10
2018-04-07T17:32:24.595Z,22.90
2018-04-07T17:34:50.516Z,22.90
2018-04-07T17:37:16.407Z,22.80
2018-04-07T17:39:42.343Z,22.70
2018-04-07T17:42:08.244Z,22.60
2018-04-07T17:44:34.180Z,22.40
2018-04-07T17:47:00.089Z,22.40
2018-04-07T17:49:26.032Z,22.40
2018-04-07T17:51:51.940Z,22.30
2018-04-07T17:54:17.811Z,22.20
2018-04-07T17:56:43.727Z,22.30
2018-04-07T17:59:09.655Z,22.20
2018-04-07T18:01:35.588Z,22.20
2018-04-07T18:04:01.528Z,22.10
2018-04-07T18:06:27.451Z,22.10
2018-04-07T18:08:53.375Z,22.10
2018-04-07T18:11:19.299Z,22.00
2018-04-07T18:13:45.189Z,21.90
2018-04-07T18:16:11.150Z,21.90
2018-04-07T18:18:37.777Z,21.90
2018-04-07T18:21:04.818Z,21.90
2018-04-07T18:23:30.712Z,21.80
2018-04-07T18:25:56.623Z,21.80
2018-04-07T18:28:22.532Z,21.70
2018-04-07T18:30:48.476Z,21.70
2018-04-07T18:33:14.413Z,21.70
2018-04-07T18:35:40.327Z,21.60
2018-04-07T18:38:06.240Z,21.50
2018-04-07T18:40:32.140Z,21.40
2018-04-07T18:42:58.070Z,21.30
2018-04-07T18:45:23.996Z,21.10
2018-04-07T18:47:49.899Z,21.00
2018-04-07T18:50:15.860Z,21.00
2018-04-07T18:52:41.747Z,21.00
2018-04-07T18:55:07.671Z,20.90
2018-04-07T18:57:33.621Z,20.90
2018-04-07T18:59:59.539Z,20.90
2018-04-07T19:02:25.469Z,20.80
2018-04-07T19:04:51.356Z,20.70
2018-04-07T19:07:17.300Z,20.60
2018-04-07T19:09:43.258Z,20.50
2018-04-07T19:12:09.884Z,20.40
2018-04-07T19:14:36.602Z,20.30
2018-04-07T19:17:02.525Z,20.20
2018-04-07T19:19:28.461Z,20.20
2018-04-07T19:21:54.377Z,20.20
2018-04-07T19:24:20.335Z,20.10
2018-04-07T19:26:46.235Z,20.00
2018-04-07T19:29:12.907Z,19.90
2018-04-07T19:31:38.804Z,19.90
2018-04-07T19:34:05.514Z,19.70
2018-04-07T19:36:31.465Z,19.70
2018-04-07T19:38:57.405Z,19.60
2018-04-07T19:41:23.372Z,19.60
2018-04-07T19:43:49.300Z,19.60
2018-04-07T19:46:15.224Z,19.50
2018-04-07T19:48:41.128Z,19.30
2018-04-07T19:51:07.064Z,19.20
2018-04-07T19:53:32.985Z,19.00
2018-04-07T19:55:58.918Z,19.00
2018-04-07T19:58:24.860Z,18.90
2018-04-07T20:00:51.521Z,18.90
2018-04-07T20:03:18.224Z,18.80
2018-04-07T20:05:44.113Z,18.80
2018-04-07T20:08:10.028Z,18.80
2018-04-07T20:10:35.941Z,18.80
2018-04-07T20:13:01.879Z,18.70
2018-04-07T20:15:27.812Z,18.70
2018-04-07T20:17:53.738Z,18.70
2018-04-07T20:20:20.448Z,18.70
2018-04-07T20:22:46.345Z,18.70
2018-04-07T20:25:12.338Z,18.70
2018-04-07T20:27:39.032Z,18.60
2018-04-07T20:30:04.943Z,18.60
2018-04-07T20:32:30.897Z,18.60
2018-04-07T20:34:56.845Z,18.60
2018-04-07T20:37:24.113Z,18.50
2018-04-07T20:39:50.052Z,18.50
2018-04-07T20:42:16.020Z,18.40
2018-04-07T20:44:41.971Z,18.30
2018-04-07T20:47:07.889Z,18.30
2018-04-07T20:49:33.828Z,18.30
2018-04-07T20:51:59.722Z,18.20
2018-04-07T20:54:25.717Z,18.10
2018-04-07T20:56:51.620Z,18.00
2018-04-07T20:59:17.509Z,18.00
2018-04-07T21:01:43.448Z,18.00
2018-04-07T21:04:09.368Z,17.90
2018-04-07T21:06:35.293Z,17.90
2018-04-07T21:09:01.240Z,17.90
2018-04-07T21:11:27.193Z,17.80
2018-04-07T21:13:53.872Z,17.60
2018-04-07T21:16:19.832Z,17.60
2018-04-07T21:18:45.742Z,17.50
2018-04-07T21:21:11.653Z,17.40
2018-04-07T21:23:37.602Z,17.30
2018-04-07T21:26:03.553Z,17.30
2018-04-07T21:28:29.472Z,17.20
2018-04-07T21:30:55.384Z,17.20
2018-04-07T21:33:21.312Z,17.10
2018-04-07T21:35:47.232Z,17.10
2018-04-07T21:38:13.180Z,17.00
2018-04-07T21:40:39.083Z,16.90
2018-04-07T21:43:05.000Z,16.90
2018-04-07T21:45:30.904Z,16.90
2018-04-07T21:47:56.812Z,16.90
2018-04-07T21:50:22.711Z,16.90
2018-04-07T21:52:48.645Z,16.90
2018-04-07T21:55:14.619Z,16.80
2018-04-07T21:57:40.528Z,16.80
2018-04-07T22:00:07.200Z,16.70
2018-04-07T22:02:33.173Z,16.70
2018-04-07T22:04:59.069Z,16.70
2018-04-07T22:07:25.083Z,16.70
2018-04-07T22:09:51.072Z,16.50
2018-04-07T22:12:16.984Z,16.50
2018-04-07T22:14:42.948Z,16.50
2018-04-07T22:17:08.852Z,16.40
2018-04-07T22:19:34.752Z,16.40
2018-04-07T22:22:00.673Z,16.40
2018-04-07T22:24:26.588Z,16.40
2018-04-07T22:26:52.540Z,16.30
2018-04-07T22:29:18.446Z,16.30
2018-04-07T22:31:44.391Z,16.30
2018-04-07T22:34:10.302Z,16.30
2018-04-07T22:36:36.239Z,16.30
2018-04-07T22:39:02.131Z,16.30
2018-04-07T22:41:28.029Z,16.20
2018-04-07T22:43:53.921Z,16.30
2018-04-07T22:46:20.620Z,16.00
2018-04-07T22:48:46.532Z,16.00
2018-04-07T22:51:12.406Z,16.00
2018-04-07T22:53:39.079Z,15.80
2018-04-07T22:56:04.960Z,15.80
2018-04-07T22:58:31.620Z,15.90
2018-04-07T23:00:57.519Z,15.80
2018-04-07T23:03:23.440Z,15.90
2018-04-07T23:05:50.130Z,15.80
2018-04-07T23:08:16.097Z,15.70
2018-04-07T23:10:42.006Z,15.70
2018-04-07T23:13:07.892Z,15.60
2018-04-07T23:15:33.848Z,15.60
2018-04-07T23:17:59.739Z,15.60
2018-04-07T23:20:25.683Z,15.60
2018-04-07T23:22:51.572Z,15.60
2018-04-07T23:25:17.504Z,15.50
2018-04-07T23:27:43.395Z,15.50
2018-04-07T23:30:09.296Z,15.40
2018-04-07T23:32:35.947Z,15.20
2018-04-07T23:35:01.938Z,15.20
2018-04-07T23:37:28.575Z,15.20
2018-04-07T23:39:54.515Z,15.20
2018-04-07T23:42:21.171Z,15.10
2018-04-07T23:44:47.119Z,15.10
2018-04-07T23:47:13.023Z,15.10
2018-04-07T23:49:38.911Z,14.90
2018-04-07T23:52:05.626Z,14.80
2018-04-07T23:54:31.522Z,14.80
2018-04-07T23:56:57.426Z,14.90
2018-04-07T23:59:23.328Z,15.00
